sensor_id;sensor_type;location;lat;lon;timestamp;P1;durP1;ratioP1;P2;durP2;ratioP2
19733;SDS011;10018;51.230;7.860;2023-03-19T00:00:04;15.40;;;9.30;;
19733;SDS011;10018;51.230;7.860;2023-03-19T00:02:32;15.03;;;9.07;;
19733;SDS011;10018;51.230;7.860;2023-03-19T00:05:01;19.97;;;9.00;;
19733;SDS011;10018;51.230;7.860;2023-03-19T00:07:28;12.30;;;8.23;;
19733;SDS011;10018;51.230;7.860;2023-03-19T00:09:53;14.73;;;8.63;;
19733;SDS011;10018;51.230;7.860;2023-03-19T00:12:19;14.90;;;8.37;;
19733;SDS011;10018;51.230;7.860;2023-03-19T00:14:45;12.90;;;8.47;;
19733;SDS011;10018;51.230;7.860;2023-03-19T00:17:10;15.63;;;8.87;;
19733;SDS011;10018;51.230;7.860;2023-03-19T00:19:36;16.87;;;8.67;;
19733;SDS011;10018;51.230;7.860;2023-03-19T00:22:02;15.07;;;7.87;;
19733;SDS011;10018;51.230;7.860;2023-03-19T00:24:28;11.77;;;8.37;;
19733;SDS011;10018;51.230;7.860;2023-03-19T00:26:54;13.73;;;8.40;;
19733;SDS011;10018;51.230;7.860;2023-03-19T00:29:20;18.63;;;9.33;;
19733;SDS011;10018;51.230;7.860;2023-03-19T00:31:49;17.60;;;9.17;;
19733;SDS011;10018;51.230;7.860;2023-03-19T00:34:15;16.43;;;9.23;;
19733;SDS011;10018;51.230;7.860;2023-03-19T00:36:44;19.57;;;9.60;;
19733;SDS011;10018;51.230;7.860;2023-03-19T00:39:10;15.10;;;9.53;;
19733;SDS011;10018;51.230;7.860;2023-03-19T00:41:36;13.80;;;9.10;;
19733;SDS011;10018;51.230;7.860;2023-03-19T00:44:02;13.90;;;9.23;;
19733;SDS011;10018;51.230;7.860;2023-03-19T00:46:29;16.67;;;9.37;;
19733;SDS011;10018;51.230;7.860;2023-03-19T00:48:54;13.90;;;9.00;;
19733;SDS011;10018;51.230;7.860;2023-03-19T00:51:21;16.53;;;9.03;;
19733;SDS011;10018;51.230;7.860;2023-03-19T00:53:47;13.80;;;8.77;;
19733;SDS011;10018;51.230;7.860;2023-03-19T00:56:13;18.90;;;9.10;;
19733;SDS011;10018;51.230;7.860;2023-03-19T00:58:39;15.10;;;8.87;;
19733;SDS011;10018;51.230;7.860;2023-03-19T01:01:08;15.07;;;8.80;;
19733;SDS011;10018;51.230;7.860;2023-03-19T01:03:39;17.27;;;9.50;;
19733;SDS011;10018;51.230;7.860;2023-03-19T01:06:07;19.17;;;9.80;;
19733;SDS011;10018;51.230;7.860;2023-03-19T01:08:35;15.73;;;9.63;;
19733;SDS011;10018;51.230;7.860;2023-03-19T01:11:07;18.57;;;9.03;;
19733;SDS011;10018;51.230;7.860;2023-03-19T01:13:35;16.90;;;9.17;;
19733;SDS011;10018;51.230;7.860;2023-03-19T01:16:00;13.63;;;7.77;;
19733;SDS011;10018;51.230;7.860;2023-03-19T01:18:26;11.90;;;7.80;;
19733;SDS011;10018;51.230;7.860;2023-03-19T01:20:52;14.13;;;8.60;;
19733;SDS011;10018;51.230;7.860;2023-03-19T01:23:17;15.10;;;8.87;;
19733;SDS011;10018;51.230;7.860;2023-03-19T01:25:45;14.83;;;8.70;;
19733;SDS011;10018;51.230;7.860;2023-03-19T01:28:11;18.73;;;9.30;;
19733;SDS011;10018;51.230;7.860;2023-03-19T01:30:37;21.60;;;9.03;;
19733;SDS011;10018;51.230;7.860;2023-03-19T01:33:04;16.97;;;8.40;;
19733;SDS011;10018;51.230;7.860;2023-03-19T01:35:30;18.97;;;9.47;;
19733;SDS011;10018;51.230;7.860;2023-03-19T01:37:56;15.47;;;9.27;;
19733;SDS011;10018;51.230;7.860;2023-03-19T01:40:21;15.07;;;9.40;;
19733;SDS011;10018;51.230;7.860;2023-03-19T01:45:30;14.80;;;8.50;;
19733;SDS011;10018;51.230;7.860;2023-03-19T01:47:57;17.33;;;8.50;;
19733;SDS011;10018;51.230;7.860;2023-03-19T01:50:28;13.87;;;9.13;;
19733;SDS011;10018;51.230;7.860;2023-03-19T01:53:00;14.27;;;8.60;;
19733;SDS011;10018;51.230;7.860;2023-03-19T01:55:26;15.07;;;8.57;;
19733;SDS011;10018;51.230;7.860;2023-03-19T01:57:52;15.53;;;8.33;;
19733;SDS011;10018;51.230;7.860;2023-03-19T02:00:17;15.70;;;9.37;;
19733;SDS011;10018;51.230;7.860;2023-03-19T02:02:43;15.63;;;9.60;;
19733;SDS011;10018;51.230;7.860;2023-03-19T02:05:12;16.60;;;9.63;;
19733;SDS011;10018;51.230;7.860;2023-03-19T02:07:40;16.87;;;9.70;;
19733;SDS011;10018;51.230;7.860;2023-03-19T02:10:09;16.67;;;9.50;;
19733;SDS011;10018;51.230;7.860;2023-03-19T02:12:39;16.20;;;9.67;;
19733;SDS011;10018;51.230;7.860;2023-03-19T02:15:05;17.33;;;9.50;;
19733;SDS011;10018;51.230;7.860;2023-03-19T02:17:31;15.23;;;8.73;;
19733;SDS011;10018;51.230;7.860;2023-03-19T02:22:45;12.17;;;7.70;;
19733;SDS011;10018;51.230;7.860;2023-03-19T02:25:37;15.30;;;8.27;;
19733;SDS011;10018;51.230;7.860;2023-03-19T02:28:10;16.07;;;9.10;;
19733;SDS011;10018;51.230;7.860;2023-03-19T02:30:42;19.00;;;9.37;;
19733;SDS011;10018;51.230;7.860;2023-03-19T02:33:11;13.50;;;8.83;;
19733;SDS011;10018;51.230;7.860;2023-03-19T02:35:38;16.67;;;9.90;;
19733;SDS011;10018;51.230;7.860;2023-03-19T02:38:05;15.53;;;9.27;;
19733;SDS011;10018;51.230;7.860;2023-03-19T02:40:33;14.40;;;9.30;;
19733;SDS011;10018;51.230;7.860;2023-03-19T02:43:02;16.23;;;9.70;;
19733;SDS011;10018;51.230;7.860;2023-03-19T02:45:30;17.73;;;10.20;;
19733;SDS011;10018;51.230;7.860;2023-03-19T02:47:58;18.27;;;9.57;;
19733;SDS011;10018;51.230;7.860;2023-03-19T02:50:27;16.53;;;9.20;;
19733;SDS011;10018;51.230;7.860;2023-03-19T02:52:52;13.37;;;9.10;;
19733;SDS011;10018;51.230;7.860;2023-03-19T02:55:18;16.33;;;9.50;;
19733;SDS011;10018;51.230;7.860;2023-03-19T02:57:45;16.87;;;9.90;;
19733;SDS011;10018;51.230;7.860;2023-03-19T03:00:11;13.27;;;9.73;;
19733;SDS011;10018;51.230;7.860;2023-03-19T03:02:37;21.33;;;10.53;;
19733;SDS011;10018;51.230;7.860;2023-03-19T03:05:03;16.80;;;10.20;;
19733;SDS011;10018;51.230;7.860;2023-03-19T03:07:30;18.43;;;11.03;;
19733;SDS011;10018;51.230;7.860;2023-03-19T03:09:59;24.57;;;11.23;;
19733;SDS011;10018;51.230;7.860;2023-03-19T03:12:24;19.67;;;11.80;;
19733;SDS011;10018;51.230;7.860;2023-03-19T03:14:52;29.77;;;13.00;;
19733;SDS011;10018;51.230;7.860;2023-03-19T03:17:17;28.00;;;13.30;;
19733;SDS011;10018;51.230;7.860;2023-03-19T03:19:44;20.17;;;11.37;;
19733;SDS011;10018;51.230;7.860;2023-03-19T03:22:09;20.33;;;11.03;;
19733;SDS011;10018;51.230;7.860;2023-03-19T03:24:35;18.23;;;11.03;;
19733;SDS011;10018;51.230;7.860;2023-03-19T03:27:03;18.57;;;10.67;;
19733;SDS011;10018;51.230;7.860;2023-03-19T03:29:28;15.40;;;10.63;;
19733;SDS011;10018;51.230;7.860;2023-03-19T03:31:54;16.77;;;10.63;;
19733;SDS011;10018;51.230;7.860;2023-03-19T03:34:20;16.73;;;10.40;;
19733;SDS011;10018;51.230;7.860;2023-03-19T03:36:46;18.50;;;10.20;;
19733;SDS011;10018;51.230;7.860;2023-03-19T03:39:11;17.73;;;10.83;;
19733;SDS011;10018;51.230;7.860;2023-03-19T03:41:39;18.17;;;10.60;;
19733;SDS011;10018;51.230;7.860;2023-03-19T03:44:04;20.83;;;11.30;;
19733;SDS011;10018;51.230;7.860;2023-03-19T03:46:30;18.17;;;10.77;;
19733;SDS011;10018;51.230;7.860;2023-03-19T03:48:56;22.70;;;10.10;;
19733;SDS011;10018;51.230;7.860;2023-03-19T03:51:21;18.70;;;9.77;;
19733;SDS011;10018;51.230;7.860;2023-03-19T03:53:47;21.87;;;10.07;;
19733;SDS011;10018;51.230;7.860;2023-03-19T03:56:13;16.77;;;10.27;;
19733;SDS011;10018;51.230;7.860;2023-03-19T03:58:38;17.57;;;10.50;;
19733;SDS011;10018;51.230;7.860;2023-03-19T04:01:04;17.43;;;10.37;;
19733;SDS011;10018;51.230;7.860;2023-03-19T04:03:33;18.30;;;10.33;;
19733;SDS011;10018;51.230;7.860;2023-03-19T04:05:58;20.70;;;10.50;;
19733;SDS011;10018;51.230;7.860;2023-03-19T04:08:24;20.83;;;11.33;;
19733;SDS011;10018;51.230;7.860;2023-03-19T04:10:49;21.00;;;10.90;;
19733;SDS011;10018;51.230;7.860;2023-03-19T04:13:15;16.63;;;10.30;;
19733;SDS011;10018;51.230;7.860;2023-03-19T04:15:44;18.50;;;10.27;;
19733;SDS011;10018;51.230;7.860;2023-03-19T04:18:10;14.70;;;9.77;;
19733;SDS011;10018;51.230;7.860;2023-03-19T04:20:36;17.00;;;10.57;;
19733;SDS011;10018;51.230;7.860;2023-03-19T04:23:01;15.30;;;10.27;;
19733;SDS011;10018;51.230;7.860;2023-03-19T04:25:29;17.57;;;10.10;;
19733;SDS011;10018;51.230;7.860;2023-03-19T04:27:58;16.57;;;10.23;;
19733;SDS011;10018;51.230;7.860;2023-03-19T04:30:23;15.93;;;10.07;;
19733;SDS011;10018;51.230;7.860;2023-03-19T04:32:49;15.13;;;10.37;;
19733;SDS011;10018;51.230;7.860;2023-03-19T04:35:14;15.57;;;9.80;;
19733;SDS011;10018;51.230;7.860;2023-03-19T04:37:42;15.37;;;10.30;;
19733;SDS011;10018;51.230;7.860;2023-03-19T04:40:14;19.87;;;10.30;;
19733;SDS011;10018;51.230;7.860;2023-03-19T04:42:41;16.93;;;10.20;;
19733;SDS011;10018;51.230;7.860;2023-03-19T04:45:08;17.90;;;10.27;;
19733;SDS011;10018;51.230;7.860;2023-03-19T04:47:34;16.77;;;10.37;;
19733;SDS011;10018;51.230;7.860;2023-03-19T04:50:00;17.30;;;10.00;;
19733;SDS011;10018;51.230;7.860;2023-03-19T04:52:26;17.20;;;9.63;;
19733;SDS011;10018;51.230;7.860;2023-03-19T04:54:53;15.27;;;10.40;;
19733;SDS011;10018;51.230;7.860;2023-03-19T04:57:19;20.53;;;10.73;;
19733;SDS011;10018;51.230;7.860;2023-03-19T04:59:45;14.80;;;10.10;;
19733;SDS011;10018;51.230;7.860;2023-03-19T05:02:11;16.63;;;11.07;;
19733;SDS011;10018;51.230;7.860;2023-03-19T05:04:37;17.30;;;10.57;;
19733;SDS011;10018;51.230;7.860;2023-03-19T05:07:08;18.47;;;11.17;;
19733;SDS011;10018;51.230;7.860;2023-03-19T05:09:33;17.97;;;10.57;;
19733;SDS011;10018;51.230;7.860;2023-03-19T05:11:59;16.43;;;10.37;;
19733;SDS011;10018;51.230;7.860;2023-03-19T05:14:27;17.37;;;10.83;;
19733;SDS011;10018;51.230;7.860;2023-03-19T05:16:52;17.70;;;10.20;;
19733;SDS011;10018;51.230;7.860;2023-03-19T05:19:18;16.53;;;10.03;;
19733;SDS011;10018;51.230;7.860;2023-03-19T05:21:44;15.90;;;10.53;;
19733;SDS011;10018;51.230;7.860;2023-03-19T05:24:09;18.10;;;10.30;;
19733;SDS011;10018;51.230;7.860;2023-03-19T05:26:35;15.77;;;10.27;;
19733;SDS011;10018;51.230;7.860;2023-03-19T05:29:02;15.90;;;10.00;;
19733;SDS011;10018;51.230;7.860;2023-03-19T05:31:27;14.37;;;9.97;;
19733;SDS011;10018;51.230;7.860;2023-03-19T05:33:53;19.07;;;10.43;;
19733;SDS011;10018;51.230;7.860;2023-03-19T05:36:18;16.60;;;10.33;;
19733;SDS011;10018;51.230;7.860;2023-03-19T05:38:44;20.40;;;11.13;;
19733;SDS011;10018;51.230;7.860;2023-03-19T05:41:10;18.73;;;10.33;;
19733;SDS011;10018;51.230;7.860;2023-03-19T05:43:35;16.93;;;9.90;;
19733;SDS011;10018;51.230;7.860;2023-03-19T05:46:01;17.03;;;10.27;;
19733;SDS011;10018;51.230;7.860;2023-03-19T05:48:27;19.13;;;10.50;;
19733;SDS011;10018;51.230;7.860;2023-03-19T05:50:52;18.50;;;10.10;;
19733;SDS011;10018;51.230;7.860;2023-03-19T05:53:18;14.73;;;9.80;;
19733;SDS011;10018;51.230;7.860;2023-03-19T05:55:44;18.40;;;10.63;;
19733;SDS011;10018;51.230;7.860;2023-03-19T05:58:10;19.63;;;10.30;;
19733;SDS011;10018;51.230;7.860;2023-03-19T06:00:35;20.23;;;10.23;;
19733;SDS011;10018;51.230;7.860;2023-03-19T06:03:01;15.43;;;9.50;;
19733;SDS011;10018;51.230;7.860;2023-03-19T06:05:27;14.83;;;10.00;;
19733;SDS011;10018;51.230;7.860;2023-03-19T06:07:52;13.90;;;9.50;;
19733;SDS011;10018;51.230;7.860;2023-03-19T06:10:18;19.83;;;10.60;;
19733;SDS011;10018;51.230;7.860;2023-03-19T06:12:43;17.37;;;9.60;;
19733;SDS011;10018;51.230;7.860;2023-03-19T06:15:09;16.43;;;9.50;;
19733;SDS011;10018;51.230;7.860;2023-03-19T06:17:38;18.10;;;9.43;;
19733;SDS011;10018;51.230;7.860;2023-03-19T06:20:06;16.00;;;9.13;;
19733;SDS011;10018;51.230;7.860;2023-03-19T06:22:32;17.00;;;9.37;;
19733;SDS011;10018;51.230;7.860;2023-03-19T06:24:58;16.33;;;9.47;;
19733;SDS011;10018;51.230;7.860;2023-03-19T06:27:23;16.40;;;9.23;;
19733;SDS011;10018;51.230;7.860;2023-03-19T06:29:49;16.63;;;9.50;;
19733;SDS011;10018;51.230;7.860;2023-03-19T06:32:15;15.27;;;9.10;;
19733;SDS011;10018;51.230;7.860;2023-03-19T06:34:43;18.13;;;9.90;;
19733;SDS011;10018;51.230;7.860;2023-03-19T06:37:08;16.40;;;9.30;;
19733;SDS011;10018;51.230;7.860;2023-03-19T06:39:34;18.27;;;9.70;;
19733;SDS011;10018;51.230;7.860;2023-03-19T06:42:00;20.67;;;9.17;;
19733;SDS011;10018;51.230;7.860;2023-03-19T06:44:25;15.13;;;9.13;;
19733;SDS011;10018;51.230;7.860;2023-03-19T06:46:53;13.77;;;9.23;;
19733;SDS011;10018;51.230;7.860;2023-03-19T06:49:21;15.43;;;9.40;;
19733;SDS011;10018;51.230;7.860;2023-03-19T06:51:47;14.87;;;9.30;;
19733;SDS011;10018;51.230;7.860;2023-03-19T06:54:15;13.23;;;8.77;;
19733;SDS011;10018;51.230;7.860;2023-03-19T06:56:43;23.00;;;10.63;;
19733;SDS011;10018;51.230;7.860;2023-03-19T06:59:11;18.17;;;9.50;;
19733;SDS011;10018;51.230;7.860;2023-03-19T07:01:38;17.93;;;8.47;;
19733;SDS011;10018;51.230;7.860;2023-03-19T07:04:07;14.53;;;8.50;;
19733;SDS011;10018;51.230;7.860;2023-03-19T07:06:33;11.83;;;8.07;;
19733;SDS011;10018;51.230;7.860;2023-03-19T07:08:59;16.17;;;8.20;;
19733;SDS011;10018;51.230;7.860;2023-03-19T07:11:25;12.90;;;8.23;;
19733;SDS011;10018;51.230;7.860;2023-03-19T07:13:50;14.37;;;8.47;;
19733;SDS011;10018;51.230;7.860;2023-03-19T07:16:16;13.10;;;8.40;;
19733;SDS011;10018;51.230;7.860;2023-03-19T07:18:42;17.60;;;8.60;;
19733;SDS011;10018;51.230;7.860;2023-03-19T07:21:07;14.37;;;8.67;;
19733;SDS011;10018;51.230;7.860;2023-03-19T07:23:33;12.07;;;7.83;;
19733;SDS011;10018;51.230;7.860;2023-03-19T07:25:58;18.93;;;8.80;;
19733;SDS011;10018;51.230;7.860;2023-03-19T07:28:24;15.30;;;8.40;;
19733;SDS011;10018;51.230;7.860;2023-03-19T07:30:50;14.67;;;9.33;;
19733;SDS011;10018;51.230;7.860;2023-03-19T07:33:17;13.97;;;8.80;;
19733;SDS011;10018;51.230;7.860;2023-03-19T07:35:43;12.53;;;8.27;;
19733;SDS011;10018;51.230;7.860;2023-03-19T07:38:11;14.73;;;8.23;;
19733;SDS011;10018;51.230;7.860;2023-03-19T07:40:37;14.30;;;8.37;;
19733;SDS011;10018;51.230;7.860;2023-03-19T07:43:02;15.17;;;9.30;;
19733;SDS011;10018;51.230;7.860;2023-03-19T07:45:28;15.17;;;9.23;;
19733;SDS011;10018;51.230;7.860;2023-03-19T07:47:54;13.60;;;8.60;;
19733;SDS011;10018;51.230;7.860;2023-03-19T07:50:20;13.67;;;8.43;;
19733;SDS011;10018;51.230;7.860;2023-03-19T07:52:46;12.57;;;8.50;;
19733;SDS011;10018;51.230;7.860;2023-03-19T07:55:15;13.07;;;8.03;;
19733;SDS011;10018;51.230;7.860;2023-03-19T07:57:41;12.63;;;8.30;;
19733;SDS011;10018;51.230;7.860;2023-03-19T08:00:07;13.43;;;8.07;;
19733;SDS011;10018;51.230;7.860;2023-03-19T08:02:34;12.43;;;7.60;;
19733;SDS011;10018;51.230;7.860;2023-03-19T08:05:00;13.83;;;7.33;;
19733;SDS011;10018;51.230;7.860;2023-03-19T08:07:28;11.23;;;6.90;;
19733;SDS011;10018;51.230;7.860;2023-03-19T08:09:54;10.50;;;7.10;;
19733;SDS011;10018;51.230;7.860;2023-03-19T08:12:22;14.37;;;6.60;;
19733;SDS011;10018;51.230;7.860;2023-03-19T08:14:48;9.43;;;6.97;;
19733;SDS011;10018;51.230;7.860;2023-03-19T08:17:13;7.27;;;4.07;;
19733;SDS011;10018;51.230;7.860;2023-03-19T08:19:39;8.33;;;3.67;;
19733;SDS011;10018;51.230;7.860;2023-03-19T08:22:04;8.77;;;3.60;;
19733;SDS011;10018;51.230;7.860;2023-03-19T08:24:30;7.07;;;3.33;;
19733;SDS011;10018;51.230;7.860;2023-03-19T08:26:56;7.87;;;3.10;;
19733;SDS011;10018;51.230;7.860;2023-03-19T08:29:21;6.83;;;3.20;;
19733;SDS011;10018;51.230;7.860;2023-03-19T08:31:52;6.10;;;3.10;;
19733;SDS011;10018;51.230;7.860;2023-03-19T08:34:20;7.60;;;2.93;;
19733;SDS011;10018;51.230;7.860;2023-03-19T08:36:46;6.00;;;3.10;;
19733;SDS011;10018;51.230;7.860;2023-03-19T08:39:12;4.70;;;2.77;;
19733;SDS011;10018;51.230;7.860;2023-03-19T08:41:37;4.30;;;2.47;;
19733;SDS011;10018;51.230;7.860;2023-03-19T08:44:03;6.23;;;2.50;;
19733;SDS011;10018;51.230;7.860;2023-03-19T08:46:31;5.63;;;2.73;;
19733;SDS011;10018;51.230;7.860;2023-03-19T08:48:57;5.57;;;2.40;;
19733;SDS011;10018;51.230;7.860;2023-03-19T08:51:24;5.43;;;2.20;;
19733;SDS011;10018;51.230;7.860;2023-03-19T08:53:52;5.57;;;2.00;;
19733;SDS011;10018;51.230;7.860;2023-03-19T08:56:22;3.80;;;1.93;;
19733;SDS011;10018;51.230;7.860;2023-03-19T08:58:48;5.57;;;2.33;;
19733;SDS011;10018;51.230;7.860;2023-03-19T09:01:13;3.90;;;2.17;;
19733;SDS011;10018;51.230;7.860;2023-03-19T09:03:40;5.73;;;3.37;;
19733;SDS011;10018;51.230;7.860;2023-03-19T09:06:08;5.53;;;2.03;;
19733;SDS011;10018;51.230;7.860;2023-03-19T09:08:35;4.20;;;2.23;;
19733;SDS011;10018;51.230;7.860;2023-03-19T09:11:01;4.63;;;2.03;;
19733;SDS011;10018;51.230;7.860;2023-03-19T09:13:27;5.47;;;2.30;;
19733;SDS011;10018;51.230;7.860;2023-03-19T09:15:53;3.50;;;1.80;;
19733;SDS011;10018;51.230;7.860;2023-03-19T09:18:19;2.90;;;1.60;;
19733;SDS011;10018;51.230;7.860;2023-03-19T09:20:47;4.33;;;2.43;;
19733;SDS011;10018;51.230;7.860;2023-03-19T09:23:13;3.47;;;2.07;;
19733;SDS011;10018;51.230;7.860;2023-03-19T09:25:39;3.20;;;1.97;;
19733;SDS011;10018;51.230;7.860;2023-03-19T09:28:09;3.07;;;1.80;;
19733;SDS011;10018;51.230;7.860;2023-03-19T09:30:35;4.03;;;1.97;;
19733;SDS011;10018;51.230;7.860;2023-03-19T09:33:00;2.90;;;1.70;;
19733;SDS011;10018;51.230;7.860;2023-03-19T09:35:27;2.80;;;1.63;;
19733;SDS011;10018;51.230;7.860;2023-03-19T09:37:56;3.00;;;1.80;;
19733;SDS011;10018;51.230;7.860;2023-03-19T09:40:25;3.57;;;1.90;;
19733;SDS011;10018;51.230;7.860;2023-03-19T09:42:59;4.13;;;1.80;;
19733;SDS011;10018;51.230;7.860;2023-03-19T09:45:41;2.77;;;1.70;;
19733;SDS011;10018;51.230;7.860;2023-03-19T09:48:11;4.80;;;1.90;;
19733;SDS011;10018;51.230;7.860;2023-03-19T09:50:43;2.70;;;1.50;;
19733;SDS011;10018;51.230;7.860;2023-03-19T09:55:49;5.67;;;2.73;;
19733;SDS011;10018;51.230;7.860;2023-03-19T09:58:22;3.67;;;1.60;;
19733;SDS011;10018;51.230;7.860;2023-03-19T10:00:55;4.17;;;1.80;;
19733;SDS011;10018;51.230;7.860;2023-03-19T10:16:41;4.50;;;1.97;;
19733;SDS011;10018;51.230;7.860;2023-03-19T10:19:12;3.17;;;1.70;;
19733;SDS011;10018;51.230;7.860;2023-03-19T10:21:42;4.07;;;2.30;;
19733;SDS011;10018;51.230;7.860;2023-03-19T10:24:16;4.10;;;2.00;;
19733;SDS011;10018;51.230;7.860;2023-03-19T10:26:46;3.77;;;1.80;;
19733;SDS011;10018;51.230;7.860;2023-03-19T10:29:14;3.67;;;1.70;;
19733;SDS011;10018;51.230;7.860;2023-03-19T10:34:45;3.70;;;1.80;;
19733;SDS011;10018;51.230;7.860;2023-03-19T10:37:18;3.17;;;1.43;;
19733;SDS011;10018;51.230;7.860;2023-03-19T10:39:45;3.83;;;1.87;;
19733;SDS011;10018;51.230;7.860;2023-03-19T10:47:44;3.47;;;1.90;;
19733;SDS011;10018;51.230;7.860;2023-03-19T10:50:19;3.37;;;1.80;;
19733;SDS011;10018;51.230;7.860;2023-03-19T10:52:49;2.77;;;1.70;;
19733;SDS011;10018;51.230;7.860;2023-03-19T10:55:28;3.20;;;1.80;;
19733;SDS011;10018;51.230;7.860;2023-03-19T10:57:56;3.60;;;1.57;;
19733;SDS011;10018;51.230;7.860;2023-03-19T11:00:44;3.33;;;1.90;;
19733;SDS011;10018;51.230;7.860;2023-03-19T11:03:26;3.90;;;1.90;;
19733;SDS011;10018;51.230;7.860;2023-03-19T11:08:40;4.70;;;2.30;;
19733;SDS011;10018;51.230;7.860;2023-03-19T11:11:05;4.70;;;2.60;;
19733;SDS011;10018;51.230;7.860;2023-03-19T11:13:46;4.17;;;2.10;;
19733;SDS011;10018;51.230;7.860;2023-03-19T11:16:12;4.63;;;2.20;;
19733;SDS011;10018;51.230;7.860;2023-03-19T11:18:37;5.03;;;2.10;;
19733;SDS011;10018;51.230;7.860;2023-03-19T11:21:13;3.87;;;2.40;;
19733;SDS011;10018;51.230;7.860;2023-03-19T11:24:01;4.80;;;2.50;;
19733;SDS011;10018;51.230;7.860;2023-03-19T11:26:27;4.73;;;2.73;;
19733;SDS011;10018;51.230;7.860;2023-03-19T11:28:59;5.17;;;3.10;;
19733;SDS011;10018;51.230;7.860;2023-03-19T11:31:36;9.17;;;4.10;;
19733;SDS011;10018;51.230;7.860;2023-03-19T11:34:27;8.87;;;3.93;;
19733;SDS011;10018;51.230;7.860;2023-03-19T11:37:42;4.57;;;3.00;;
19733;SDS011;10018;51.230;7.860;2023-03-19T11:54:02;5.90;;;2.93;;
19733;SDS011;10018;51.230;7.860;2023-03-19T11:59:31;10.30;;;2.67;;
19733;SDS011;10018;51.230;7.860;2023-03-19T12:05:12;5.70;;;2.73;;
19733;SDS011;10018;51.230;7.860;2023-03-19T12:24:38;1.80;;;0.90;;
19733;SDS011;10018;51.230;7.860;2023-03-19T12:35:40;1.27;;;0.87;;
19733;SDS011;10018;51.230;7.860;2023-03-19T12:38:12;1.73;;;0.93;;
19733;SDS011;10018;51.230;7.860;2023-03-19T12:40:42;2.53;;;0.90;;
19733;SDS011;10018;51.230;7.860;2023-03-19T12:43:27;2.30;;;1.00;;
19733;SDS011;10018;51.230;7.860;2023-03-19T12:46:14;3.83;;;1.70;;
19733;SDS011;10018;51.230;7.860;2023-03-19T12:51:38;2.23;;;1.20;;
19733;SDS011;10018;51.230;7.860;2023-03-19T12:56:55;2.47;;;1.30;;
19733;SDS011;10018;51.230;7.860;2023-03-19T12:59:37;3.10;;;2.17;;
19733;SDS011;10018;51.230;7.860;2023-03-19T13:02:24;2.03;;;1.23;;
19733;SDS011;10018;51.230;7.860;2023-03-19T13:04:57;2.80;;;1.10;;
19733;SDS011;10018;51.230;7.860;2023-03-19T13:10:28;2.27;;;0.90;;
19733;SDS011;10018;51.230;7.860;2023-03-19T13:12:56;1.90;;;0.87;;
19733;SDS011;10018;51.230;7.860;2023-03-19T13:15:36;3.17;;;1.10;;
19733;SDS011;10018;51.230;7.860;2023-03-19T13:23:26;2.03;;;1.00;;
19733;SDS011;10018;51.230;7.860;2023-03-19T13:25:56;1.83;;;0.80;;
19733;SDS011;10018;51.230;7.860;2023-03-19T13:33:30;1.77;;;0.70;;
19733;SDS011;10018;51.230;7.860;2023-03-19T13:36:03;1.43;;;0.80;;
19733;SDS011;10018;51.230;7.860;2023-03-19T13:38:43;1.00;;;0.70;;
19733;SDS011;10018;51.230;7.860;2023-03-19T13:46:46;2.27;;;0.70;;
19733;SDS011;10018;51.230;7.860;2023-03-19T13:54:44;1.30;;;0.60;;
19733;SDS011;10018;51.230;7.860;2023-03-19T13:59:45;2.10;;;0.60;;
19733;SDS011;10018;51.230;7.860;2023-03-19T14:04:51;2.10;;;0.60;;
19733;SDS011;10018;51.230;7.860;2023-03-19T14:07:27;0.80;;;0.60;;
19733;SDS011;10018;51.230;7.860;2023-03-19T14:20:23;2.30;;;0.67;;
19733;SDS011;10018;51.230;7.860;2023-03-19T14:28:45;1.20;;;0.60;;
19733;SDS011;10018;51.230;7.860;2023-03-19T14:31:28;1.47;;;0.60;;
19733;SDS011;10018;51.230;7.860;2023-03-19T14:34:02;2.03;;;0.60;;
19733;SDS011;10018;51.230;7.860;2023-03-19T14:36:39;1.53;;;0.80;;
19733;SDS011;10018;51.230;7.860;2023-03-19T14:39:11;2.10;;;1.00;;
19733;SDS011;10018;51.230;7.860;2023-03-19T14:41:48;2.97;;;0.80;;
19733;SDS011;10018;51.230;7.860;2023-03-19T14:52:42;1.87;;;0.90;;
19733;SDS011;10018;51.230;7.860;2023-03-19T14:55:15;2.67;;;1.33;;
19733;SDS011;10018;51.230;7.860;2023-03-19T14:57:41;3.20;;;1.90;;
19733;SDS011;10018;51.230;7.860;2023-03-19T15:00:11;3.70;;;1.93;;
19733;SDS011;10018;51.230;7.860;2023-03-19T15:02:46;1.60;;;1.00;;
19733;SDS011;10018;51.230;7.860;2023-03-19T15:05:24;2.50;;;1.20;;
19733;SDS011;10018;51.230;7.860;2023-03-19T15:07:54;3.77;;;1.00;;
19733;SDS011;10018;51.230;7.860;2023-03-19T15:10:28;2.10;;;1.00;;
19733;SDS011;10018;51.230;7.860;2023-03-19T15:13:14;2.30;;;1.00;;
19733;SDS011;10018;51.230;7.860;2023-03-19T15:16:06;3.20;;;1.60;;
19733;SDS011;10018;51.230;7.860;2023-03-19T15:18:45;3.03;;;1.20;;
19733;SDS011;10018;51.230;7.860;2023-03-19T15:21:11;2.83;;;1.50;;
19733;SDS011;10018;51.230;7.860;2023-03-19T15:23:37;2.33;;;1.10;;
19733;SDS011;10018;51.230;7.860;2023-03-19T15:26:05;2.73;;;1.20;;
19733;SDS011;10018;51.230;7.860;2023-03-19T15:28:46;3.30;;;1.10;;
19733;SDS011;10018;51.230;7.860;2023-03-19T15:31:13;2.65;;;1.40;;
19733;SDS011;10018;51.230;7.860;2023-03-19T15:33:39;1.40;;;0.70;;
19733;SDS011;10018;51.230;7.860;2023-03-19T15:41:29;2.23;;;1.10;;
19733;SDS011;10018;51.230;7.860;2023-03-19T15:43:57;1.40;;;0.90;;
19733;SDS011;10018;51.230;7.860;2023-03-19T15:46:26;2.70;;;1.37;;
19733;SDS011;10018;51.230;7.860;2023-03-19T15:51:26;3.37;;;1.90;;
19733;SDS011;10018;51.230;7.860;2023-03-19T15:53:52;2.43;;;1.10;;
19733;SDS011;10018;51.230;7.860;2023-03-19T15:56:21;2.90;;;1.20;;
19733;SDS011;10018;51.230;7.860;2023-03-19T15:58:49;4.80;;;3.30;;
19733;SDS011;10018;51.230;7.860;2023-03-19T16:01:18;4.87;;;1.73;;
19733;SDS011;10018;51.230;7.860;2023-03-19T16:03:48;2.97;;;1.40;;
19733;SDS011;10018;51.230;7.860;2023-03-19T16:06:20;2.77;;;1.00;;
19733;SDS011;10018;51.230;7.860;2023-03-19T16:08:51;2.13;;;1.30;;
19733;SDS011;10018;51.230;7.860;2023-03-19T16:11:25;3.00;;;1.50;;
19733;SDS011;10018;51.230;7.860;2023-03-19T16:13:59;3.47;;;2.03;;
19733;SDS011;10018;51.230;7.860;2023-03-19T16:16:30;3.17;;;1.43;;
19733;SDS011;10018;51.230;7.860;2023-03-19T16:18:57;2.00;;;1.00;;
19733;SDS011;10018;51.230;7.860;2023-03-19T16:23:58;1.90;;;1.00;;
19733;SDS011;10018;51.230;7.860;2023-03-19T16:26:35;1.60;;;0.97;;
19733;SDS011;10018;51.230;7.860;2023-03-19T16:31:41;1.87;;;0.90;;
19733;SDS011;10018;51.230;7.860;2023-03-19T16:34:20;1.50;;;0.80;;
19733;SDS011;10018;51.230;7.860;2023-03-19T16:36:50;1.70;;;0.70;;
19733;SDS011;10018;51.230;7.860;2023-03-19T16:39:30;1.00;;;0.60;;
19733;SDS011;10018;51.230;7.860;2023-03-19T16:42:25;2.23;;;0.80;;
19733;SDS011;10018;51.230;7.860;2023-03-19T16:44:54;4.13;;;2.20;;
19733;SDS011;10018;51.230;7.860;2023-03-19T16:47:20;1.30;;;0.70;;
19733;SDS011;10018;51.230;7.860;2023-03-19T16:49:47;1.53;;;0.83;;
19733;SDS011;10018;51.230;7.860;2023-03-19T16:52:14;2.23;;;0.90;;
19733;SDS011;10018;51.230;7.860;2023-03-19T16:54:45;1.30;;;0.83;;
19733;SDS011;10018;51.230;7.860;2023-03-19T16:57:11;1.60;;;0.77;;
19733;SDS011;10018;51.230;7.860;2023-03-19T16:59:39;1.97;;;0.80;;
19733;SDS011;10018;51.230;7.860;2023-03-19T17:02:09;1.43;;;0.90;;
19733;SDS011;10018;51.230;7.860;2023-03-19T17:04:40;2.10;;;1.23;;
19733;SDS011;10018;51.230;7.860;2023-03-19T17:07:06;1.77;;;0.90;;
19733;SDS011;10018;51.230;7.860;2023-03-19T17:09:32;3.40;;;1.00;;
19733;SDS011;10018;51.230;7.860;2023-03-19T17:11:59;2.47;;;1.27;;
19733;SDS011;10018;51.230;7.860;2023-03-19T17:14:28;2.93;;;1.50;;
19733;SDS011;10018;51.230;7.860;2023-03-19T17:16:54;4.57;;;1.63;;